Time;durP1;ratioP1;P1;durP2;ratioP2;P2;SDS_P1;SDS_P2;PMS_P1;PMS_P2;Temp;Humidity;BMP_temperature;BMP_pressure;BME280_temperature;BME280_humidity;BME280_pressure;Samples;Min_cycle;Max_cycle;Signal;HPM_P1;HPM_P2
2021/07/18 00:00:32;;;;;;;22.83;12.07;;;18.40;99.90;;;;;;4992664;28;20553;-88
2021/07/18 00:02:58;;;;;;;15.60;11.73;;;18.30;99.90;;;;;;4976530;28;20375;-88
2021/07/18 00:05:24;;;;;;;20.58;11.43;;;18.30;99.90;;;;;;4993938;28;20034;-88
2021/07/18 00:07:49;;;;;;;18.90;11.52;;;18.30;99.90;;;;;;4976612;28;20026;-89
2021/07/18 00:10:15;;;;;;;22.45;11.90;;;18.30;99.90;;;;;;4976571;28;20026;-88
2021/07/18 00:12:42;;;;;;;20.23;11.50;;;18.30;99.90;;;;;;4976542;28;20393;-88
2021/07/18 00:15:11;;;;;;;16.33;11.10;;;18.20;99.90;;;;;;4976950;28;20381;-88
2021/07/18 00:17:38;;;;;;;19.55;12.35;;;18.20;99.90;;;;;;4976423;28;20112;-88
2021/07/18 00:20:07;;;;;;;21.10;11.55;;;18.20;99.90;;;;;;4976302;28;20035;-88
2021/07/18 00:22:33;;;;;;;20.23;11.07;;;18.20;99.90;;;;;;4976335;28;20026;-88
2021/07/18 00:24:58;;;;;;;20.05;10.75;;;18.20;99.90;;;;;;4976377;28;20134;-88
2021/07/18 00:27:24;;;;;;;19.30;10.73;;;18.10;99.90;;;;;;4983996;28;20030;-87
2021/07/18 00:29:50;;;;;;;18.67;11.18;;;18.10;99.90;;;;;;5012216;28;20037;-87
2021/07/18 00:32:15;;;;;;;18.02;10.82;;;18.10;99.90;;;;;;5004427;28;20045;-88
2021/07/18 00:34:41;;;;;;;17.75;10.60;;;18.10;99.90;;;;;;4977478;28;20059;-88
2021/07/18 00:37:06;;;;;;;17.63;10.60;;;18.10;99.90;;;;;;4976725;28;20042;-88
2021/07/18 00:39:32;;;;;;;21.30;11.40;;;18.10;99.90;;;;;;4994036;28;20022;-88
2021/07/18 00:41:58;;;;;;;12.35;9.85;;;18.10;99.90;;;;;;4993658;28;20026;-88
2021/07/18 00:44:24;;;;;;;19.33;9.93;;;18.10;99.90;;;;;;4976362;28;20029;-88
2021/07/18 00:46:49;;;;;;;15.10;9.35;;;18.10;99.90;;;;;;4976315;28;20150;-89
2021/07/18 00:49:15;;;;;;;16.85;10.07;;;18.00;99.90;;;;;;4976359;28;20474;-88
2021/07/18 00:51:41;;;;;;;21.67;10.40;;;18.00;99.90;;;;;;4992378;28;20030;-88
2021/07/18 00:54:07;;;;;;;17.33;9.35;;;17.90;99.90;;;;;;4993669;28;20026;-88
2021/07/18 00:56:33;;;;;;;18.92;9.25;;;17.90;99.90;;;;;;4976194;28;20444;-88
2021/07/18 00:59:00;;;;;;;16.77;9.40;;;17.90;99.90;;;;;;4979588;28;20516;-88
2021/07/18 01:01:28;;;;;;;19.70;9.52;;;17.90;99.90;;;;;;4979706;28;20069;-88
2021/07/18 01:03:55;;;;;;;16.48;10.00;;;17.80;99.90;;;;;;4997151;28;20023;-88
2021/07/18 01:06:21;;;;;;;17.80;9.18;;;17.80;99.90;;;;;;4979605;28;20022;-89
2021/07/18 01:08:47;;;;;;;17.63;9.27;;;17.80;99.90;;;;;;4979583;28;20033;-89
2021/07/18 01:11:13;;;;;;;19.20;9.80;;;17.80;99.90;;;;;;4979554;28;20070;-88
2021/07/18 01:13:39;;;;;;;14.65;9.98;;;17.80;99.90;;;;;;4979478;28;20058;-88
2021/07/18 01:16:05;;;;;;;18.73;9.75;;;17.80;99.90;;;;;;4979396;28;20486;-88
2021/07/18 01:18:31;;;;;;;15.75;9.65;;;17.70;99.90;;;;;;4996874;28;20389;-89
2021/07/18 01:20:57;;;;;;;18.80;10.73;;;17.70;99.90;;;;;;4979411;28;20506;-88
2021/07/18 01:23:23;;;;;;;25.58;10.25;;;17.70;99.90;;;;;;4979269;28;20113;-88
2021/07/18 01:25:52;;;;;;;16.00;10.10;;;17.70;99.90;;;;;;4996694;28;20060;-88
2021/07/18 01:28:20;;;;;;;16.25;10.05;;;17.60;99.90;;;;;;4979149;28;20054;-88
2021/07/18 01:30:46;;;;;;;18.55;10.90;;;17.70;99.90;;;;;;4996626;28;20035;-88
2021/07/18 01:33:12;;;;;;;18.67;10.00;;;17.80;99.90;;;;;;4979705;28;20026;-88
2021/07/18 01:35:38;;;;;;;15.73;10.23;;;17.80;99.90;;;;;;4995225;28;20027;-88
2021/07/18 01:38:14;;;;;;;19.98;10.52;;;17.70;99.90;;;;;;4978890;28;20410;-89
2021/07/18 01:40:41;;;;;;;19.92;10.23;;;17.60;99.90;;;;;;4978974;28;20030;-88
2021/07/18 01:43:07;;;;;;;18.40;10.23;;;17.60;99.90;;;;;;4978989;28;20029;-88
2021/07/18 01:45:33;;;;;;;17.52;10.60;;;17.60;99.90;;;;;;4979075;28;20109;-88
2021/07/18 01:47:58;;;;;;;20.83;10.52;;;17.60;99.90;;;;;;4978888;28;20655;-88
2021/07/18 01:50:24;;;;;;;13.43;9.98;;;17.50;99.90;;;;;;4978828;28;20122;-88
2021/07/18 01:52:50;;;;;;;21.48;11.05;;;17.50;99.90;;;;;;4978698;28;20026;-88
2021/07/18 01:55:19;;;;;;;17.67;10.52;;;17.50;99.90;;;;;;4996378;28;20027;-89
2021/07/18 01:57:45;;;;;;;17.48;10.48;;;17.50;99.90;;;;;;4996167;28;20073;-88
2021/07/18 02:00:12;;;;;;;18.77;10.38;;;17.50;99.90;;;;;;4978631;28;20054;-88
2021/07/18 02:02:56;;;;;;;15.40;10.70;;;17.50;99.90;;;;;;4978729;28;20018;-88
2021/07/18 02:05:22;;;;;;;15.15;10.82;;;17.50;99.90;;;;;;4994998;28;20393;-88
2021/07/18 02:07:50;;;;;;;15.30;10.68;;;17.40;99.90;;;;;;4978539;28;20023;-88
2021/07/18 02:10:18;;;;;;;17.05;10.77;;;17.30;99.90;;;;;;4977850;28;20117;-87
2021/07/18 02:12:47;;;;;;;15.80;10.18;;;17.30;99.90;;;;;;4978430;28;20023;-88
2021/07/18 02:15:18;;;;;;;14.52;8.93;;;17.30;99.90;;;;;;4978434;28;20026;-88
2021/07/18 02:17:45;;;;;;;16.98;8.85;;;17.30;99.90;;;;;;4996185;28;20073;-88
2021/07/18 02:20:14;;;;;;;24.65;9.10;;;17.30;99.90;;;;;;4978185;28;20034;-88
2021/07/18 02:22:50;;;;;;;16.70;9.57;;;17.20;99.90;;;;;;4995661;28;20029;-88
2021/07/18 02:25:19;;;;;;;19.02;9.65;;;17.20;99.90;;;;;;4995675;28;20018;-88
2021/07/18 02:27:45;;;;;;;15.30;9.38;;;17.20;99.90;;;;;;4978273;28;20496;-88
2021/07/18 02:30:14;;;;;;;18.80;9.13;;;17.10;99.90;;;;;;4978071;28;20030;-88
2021/07/18 02:32:42;;;;;;;19.27;9.80;;;17.10;99.90;;;;;;4977878;28;20038;-88
2021/07/18 02:35:10;;;;;;;19.55;8.95;;;17.10;99.90;;;;;;4995423;28;20022;-88
2021/07/18 02:37:35;;;;;;;17.40;7.75;;;17.00;99.90;;;;;;4974602;28;20134;-88
2021/07/18 02:40:02;;;;;;;18.90;8.05;;;17.00;99.90;;;;;;4974622;28;20498;-88
2021/07/18 02:42:28;;;;;;;13.98;7.68;;;17.00;99.90;;;;;;4981943;28;20007;-88
2021/07/18 02:44:54;;;;;;;12.30;8.00;;;17.10;99.90;;;;;;4995408;28;20119;-87
2021/07/18 02:47:20;;;;;;;15.95;9.10;;;17.10;99.90;;;;;;4987403;28;20033;-88
2021/07/18 02:49:46;;;;;;;17.67;6.57;;;17.10;99.90;;;;;;4977501;28;20083;-87
2021/07/18 02:52:12;;;;;;;17.15;7.07;;;17.10;99.90;;;;;;4976234;28;20074;-88
2021/07/18 02:54:37;;;;;;;15.20;6.93;;;17.00;99.90;;;;;;4974844;28;20030;-88
2021/07/18 02:57:03;;;;;;;12.25;8.18;;;16.90;99.90;;;;;;4974551;28;20035;-88
2021/07/18 02:59:29;;;;;;;12.07;7.28;;;16.90;99.90;;;;;;4975628;28;20105;-88
2021/07/18 03:01:59;;;;;;;15.65;7.28;;;16.80;99.90;;;;;;4974571;28;20027;-88
2021/07/18 03:04:28;;;;;;;10.77;6.93;;;16.80;99.90;;;;;;4975607;28;20573;-88
2021/07/18 03:06:54;;;;;;;10.82;6.82;;;16.70;99.90;;;;;;4974108;28;20113;-88
2021/07/18 03:09:23;;;;;;;12.52;7.50;;;16.70;99.90;;;;;;4974316;28;20470;-88
2021/07/18 03:11:51;;;;;;;14.07;7.13;;;16.70;99.90;;;;;;4974237;28;20030;-88
2021/07/18 03:14:17;;;;;;;12.63;7.25;;;16.70;99.90;;;;;;4974303;28;20023;-88
2021/07/18 03:16:43;;;;;;;12.25;5.90;;;16.60;99.90;;;;;;4974130;28;20115;-88
2021/07/18 03:19:09;;;;;;;8.90;5.70;;;16.60;99.90;;;;;;4974100;28;20031;-89
2021/07/18 03:21:35;;;;;;;10.10;6.05;;;16.80;99.90;;;;;;4973208;28;20023;-88
2021/07/18 03:24:02;;;;;;;8.82;6.35;;;16.70;99.90;;;;;;4975156;28;20026;-88
2021/07/18 03:26:28;;;;;;;14.20;7.40;;;16.60;99.90;;;;;;4974091;28;20023;-88
2021/07/18 03:28:54;;;;;;;10.98;6.35;;;16.80;99.90;;;;;;4973879;28;20513;-88
2021/07/18 03:31:20;;;;;;;11.82;6.45;;;16.80;99.90;;;;;;4973890;28;20027;-89
2021/07/18 03:33:45;;;;;;;14.55;6.57;;;16.90;99.90;;;;;;4975332;28;20102;-88
2021/07/18 03:36:11;;;;;;;9.27;5.25;;;16.90;99.90;;;;;;4974913;28;20027;-89
2021/07/18 03:38:37;;;;;;;11.77;6.00;;;16.70;99.90;;;;;;4977090;28;20045;-88
2021/07/18 03:41:03;;;;;;;10.05;6.80;;;16.60;99.90;;;;;;4976859;28;20449;-88
2021/07/18 03:43:29;;;;;;;10.27;6.45;;;16.50;99.90;;;;;;4976868;28;20030;-88
2021/07/18 03:45:54;;;;;;;15.27;6.32;;;16.40;99.90;;;;;;4977045;28;20022;-88
2021/07/18 03:48:20;;;;;;;11.70;5.38;;;16.40;99.90;;;;;;4977202;28;20023;-88
2021/07/18 03:50:47;;;;;;;13.07;6.03;;;16.40;99.90;;;;;;4994673;28;20026;-88
2021/07/18 03:53:12;;;;;;;14.70;6.32;;;16.30;99.90;;;;;;4994563;28;20026;-88
2021/07/18 03:55:38;;;;;;;8.73;6.03;;;16.40;99.90;;;;;;4976859;28;20048;-88
2021/07/18 03:58:04;;;;;;;14.98;6.88;;;16.40;99.90;;;;;;4976646;28;20033;-88
2021/07/18 04:00:29;;;;;;;11.88;6.35;;;16.50;99.90;;;;;;4976511;28;20026;-88
2021/07/18 04:02:55;;;;;;;14.45;6.95;;;16.60;99.90;;;;;;4976899;28;20029;-89
2021/07/18 04:05:21;;;;;;;13.43;5.88;;;16.60;99.90;;;;;;4976599;28;20026;-89
2021/07/18 04:07:46;;;;;;;14.20;5.78;;;16.60;99.90;;;;;;4976444;28;20499;-88
2021/07/18 04:10:12;;;;;;;11.02;5.95;;;16.50;99.90;;;;;;4976581;28;20037;-88
2021/07/18 04:12:38;;;;;;;14.80;6.22;;;16.60;99.90;;;;;;4976611;28;20022;-88
2021/07/18 04:15:05;;;;;;;15.23;5.55;;;16.50;99.90;;;;;;4976480;28;20496;-88
2021/07/18 04:17:31;;;;;;;8.57;5.45;;;16.40;99.90;;;;;;4976479;28;20145;-89
2021/07/18 04:19:57;;;;;;;9.30;5.75;;;16.40;99.90;;;;;;4976559;28;20035;-89
2021/07/18 04:22:22;;;;;;;8.35;5.55;;;16.40;99.90;;;;;;4976357;28;20031;-88
2021/07/18 04:24:48;;;;;;;9.38;4.85;;;16.40;99.90;;;;;;4976408;28;20050;-88
2021/07/18 04:27:14;;;;;;;12.65;5.47;;;16.30;99.90;;;;;;4993826;28;20094;-89
2021/07/18 04:29:39;;;;;;;10.13;5.30;;;16.30;99.90;;;;;;4976377;28;20085;-88
2021/07/18 04:32:06;;;;;;;7.70;5.10;;;16.30;99.90;;;;;;4977058;28;20034;-88
2021/07/18 04:34:31;;;;;;;9.23;5.07;;;16.30;99.90;;;;;;4980392;28;20470;-88
2021/07/18 04:36:58;;;;;;;11.93;5.10;;;16.30;99.90;;;;;;4979885;28;20051;-88
2021/07/18 04:39:24;;;;;;;9.00;4.70;;;16.30;99.90;;;;;;4980034;28;20441;-88
2021/07/18 04:41:50;;;;;;;11.63;4.72;;;16.40;99.90;;;;;;4979977;28;20030;-88
2021/07/18 04:44:16;;;;;;;9.88;4.65;;;16.40;99.90;;;;;;4980034;28;20081;-88
2021/07/18 04:46:41;;;;;;;11.85;5.40;;;16.50;99.90;;;;;;4979920;28;20033;-88
2021/07/18 04:49:07;;;;;;;9.10;4.50;;;16.50;99.90;;;;;;4979918;28;20445;-88
2021/07/18 04:51:33;;;;;;;9.07;4.65;;;16.60;99.90;;;;;;4979856;28;20022;-88
2021/07/18 04:53:58;;;;;;;8.55;4.93;;;16.60;99.90;;;;;;4979907;28;20613;-88
2021/07/18 04:56:24;;;;;;;10.70;4.57;;;16.60;99.90;;;;;;4980044;28;20031;-88
2021/07/18 04:58:50;;;;;;;10.88;4.32;;;16.60;99.90;;;;;;4999138;28;20033;-88
2021/07/18 05:01:15;;;;;;;12.27;3.80;;;16.70;99.90;;;;;;5001844;28;20041;-88
2021/07/18 05:03:41;;;;;;;10.77;3.85;;;16.70;99.90;;;;;;5000070;28;20022;-89
2021/07/18 05:06:07;;;;;;;8.38;3.88;;;16.70;99.90;;;;;;4980061;28;20389;-89
2021/07/18 05:08:33;;;;;;;7.63;4.03;;;16.80;99.90;;;;;;4997619;28;20537;-88
2021/07/18 05:11:03;;;;;;;9.25;4.78;;;16.80;99.90;;;;;;4979783;28;20030;-88
2021/07/18 05:13:29;;;;;;;9.70;3.88;;;16.90;99.90;;;;;;4979696;28;20081;-88
2021/07/18 05:15:54;;;;;;;10.80;4.05;;;17.00;99.90;;;;;;4979504;28;20030;-88
2021/07/18 05:18:20;;;;;;;9.50;4.55;;;17.00;99.90;;;;;;4979528;28;20030;-89
2021/07/18 05:20:46;;;;;;;8.90;4.40;;;17.00;99.90;;;;;;4979789;28;20022;-88
2021/07/18 05:23:12;;;;;;;11.45;4.07;;;17.00;99.90;;;;;;4979400;28;20018;-88
2021/07/18 05:25:38;;;;;;;12.18;4.20;;;17.00;99.90;;;;;;4979285;28;20022;-88
2021/07/18 05:28:07;;;;;;;6.50;3.83;;;17.10;99.90;;;;;;4996714;28;20041;-88
2021/07/18 05:30:33;;;;;;;14.23;4.25;;;17.10;99.90;;;;;;4979048;28;20125;-88
2021/07/18 05:32:59;;;;;;;10.10;4.53;;;17.20;99.90;;;;;;4979256;28;20501;-88
2021/07/18 05:35:24;;;;;;;5.60;3.90;;;17.30;99.90;;;;;;4979053;28;20445;-88
2021/07/18 05:37:51;;;;;;;12.25;3.90;;;17.40;99.90;;;;;;4978701;28;20089;-88
2021/07/18 05:40:17;;;;;;;5.05;3.67;;;17.40;99.90;;;;;;4996378;28;20419;-88
2021/07/18 05:42:43;;;;;;;8.40;3.83;;;17.50;99.90;;;;;;4979318;28;20024;-88
2021/07/18 05:45:10;;;;;;;9.95;3.20;;;17.50;99.90;;;;;;4978057;28;20053;-88
2021/07/18 05:47:37;;;;;;;7.60;3.67;;;17.60;99.90;;;;;;4978814;28;20029;-88
2021/07/18 05:50:04;;;;;;;10.02;2.88;;;17.70;99.90;;;;;;4996296;28;20089;-88
2021/07/18 05:52:30;;;;;;;7.15;4.40;;;17.80;99.90;;;;;;4996144;28;20081;-88
2021/07/18 05:54:56;;;;;;;4.68;2.88;;;17.80;99.90;;;;;;4978817;28;20466;-88
2021/07/18 05:57:22;;;;;;;5.32;2.75;;;17.80;99.90;;;;;;4978678;28;20058;-88
2021/07/18 05:59:48;;;;;;;6.10;2.53;;;17.90;99.90;;;;;;4978618;28;20049;-88
2021/07/18 06:02:15;;;;;;;6.47;3.10;;;18.00;99.90;;;;;;4978558;28;20026;-88
2021/07/18 06:04:41;;;;;;;4.10;2.80;;;18.00;99.90;;;;;;4978575;28;20022;-88
2021/07/18 06:07:07;;;;;;;11.13;2.35;;;18.00;99.90;;;;;;4978568;28;20023;-88
2021/07/18 06:09:33;;;;;;;8.20;2.63;;;18.00;99.90;;;;;;4978740;28;20041;-89
2021/07/18 06:12:01;;;;;;;9.45;2.85;;;18.00;99.90;;;;;;4978439;28;20030;-88
2021/07/18 06:14:27;;;;;;;5.60;2.40;;;18.10;99.90;;;;;;4978681;28;20088;-88
2021/07/18 06:16:53;;;;;;;6.80;2.15;;;18.20;99.90;;;;;;4995717;28;20022;-88
2021/07/18 06:19:18;;;;;;;4.05;2.35;;;18.20;99.90;;;;;;4978526;28;20038;-89
2021/07/18 06:21:44;;;;;;;7.53;2.40;;;18.30;99.90;;;;;;4978203;28;20032;-88
2021/07/18 06:24:10;;;;;;;5.68;2.22;;;18.20;99.90;;;;;;4978277;28;20022;-88
2021/07/18 06:26:35;;;;;;;5.25;2.60;;;18.30;99.90;;;;;;4978040;28;20060;-88
2021/07/18 06:29:01;;;;;;;6.63;2.83;;;18.30;99.90;;;;;;4978058;28;20077;-88
2021/07/18 06:31:27;;;;;;;7.63;2.58;;;18.30;99.90;;;;;;4978097;28;20073;-87
2021/07/18 06:33:53;;;;;;;7.53;2.65;;;18.40;99.90;;;;;;4978033;28;20033;-88
2021/07/18 06:36:19;;;;;;;7.53;2.70;;;18.40;99.90;;;;;;4995088;28;20026;-88
2021/07/18 06:38:45;;;;;;;8.77;2.60;;;18.50;99.90;;;;;;4978018;28;20409;-88
2021/07/18 06:41:10;;;;;;;6.43;2.80;;;18.40;99.90;;;;;;4977811;28;20031;-88
2021/07/18 06:43:36;;;;;;;5.28;2.60;;;18.40;99.90;;;;;;4977904;28;20097;-88
2021/07/18 06:46:02;;;;;;;7.35;2.90;;;18.50;99.90;;;;;;4977913;28;20035;-88
2021/07/18 06:48:28;;;;;;;6.18;3.00;;;18.50;99.90;;;;;;4995131;28;20514;-89
2021/07/18 06:50:55;;;;;;;7.32;2.65;;;18.50;99.90;;;;;;4977629;28;20061;-88
2021/07/18 06:53:21;;;;;;;9.85;2.38;;;18.60;99.90;;;;;;4995079;28;20038;-88
2021/07/18 06:55:47;;;;;;;7.43;2.08;;;18.70;99.90;;;;;;4977413;28;20398;-87
2021/07/18 06:58:12;;;;;;;5.05;2.20;;;18.80;99.90;;;;;;4977472;28;20026;-88
2021/07/18 07:00:38;;;;;;;3.33;2.22;;;18.80;99.90;;;;;;4977297;28;20026;-88
2021/07/18 07:03:04;;;;;;;6.53;2.40;;;18.90;99.90;;;;;;4994770;28;20105;-87
2021/07/18 07:05:30;;;;;;;8.10;2.05;;;18.90;99.90;;;;;;4994777;28;20054;-88
2021/07/18 07:07:55;;;;;;;6.18;2.25;;;18.90;99.90;;;;;;4977530;28;20026;-87
2021/07/18 07:10:21;;;;;;;6.97;1.98;;;19.10;99.90;;;;;;4977327;28;20031;-88
2021/07/18 07:12:48;;;;;;;7.30;2.25;;;19.10;99.90;;;;;;4986967;28;20022;-87
2021/07/18 07:15:14;;;;;;;4.63;2.13;;;19.10;99.90;;;;;;4994866;28;20007;-87
2021/07/18 07:17:40;;;;;;;9.35;2.00;;;19.20;99.90;;;;;;4985761;28;20073;-88
2021/07/18 07:20:07;;;;;;;5.22;1.90;;;19.30;99.90;;;;;;4995454;28;20026;-88
2021/07/18 07:22:35;;;;;;;3.58;2.03;;;19.40;99.90;;;;;;4977517;28;20114;-87
2021/07/18 07:25:12;;;;;;;6.13;1.90;;;19.30;99.90;;;;;;4977122;28;20025;-87
2021/07/18 07:27:38;;;;;;;6.47;1.40;;;19.40;99.90;;;;;;4994468;28;20022;-88
2021/07/18 07:30:08;;;;;;;10.93;2.05;;;19.40;99.90;;;;;;4977027;28;20032;-88
2021/07/18 07:32:34;;;;;;;9.73;1.92;;;19.50;99.90;;;;;;4994422;28;20474;-88
2021/07/18 07:35:00;;;;;;;6.22;1.85;;;19.60;99.90;;;;;;4977002;28;20029;-88
2021/07/18 07:37:27;;;;;;;2.67;1.67;;;19.60;99.90;;;;;;4976725;28;20512;-88
2021/07/18 07:39:54;;;;;;;4.50;1.50;;;19.70;99.90;;;;;;4977047;28;20073;-88
2021/07/18 07:42:21;;;;;;;5.78;1.77;;;19.70;99.90;;;;;;4995033;28;20054;-88
2021/07/18 07:44:48;;;;;;;3.67;1.77;;;19.70;99.90;;;;;;4976894;28;20105;-89
2021/07/18 07:47:15;;;;;;;6.65;1.98;;;19.70;99.90;;;;;;4994301;28;20425;-88
2021/07/18 07:49:43;;;;;;;9.50;2.20;;;19.70;99.90;;;;;;4976804;28;20073;-89
2021/07/18 07:52:10;;;;;;;14.35;2.20;;;19.80;99.90;;;;;;4976808;28;20433;-89
2021/07/18 07:54:35;;;;;;;6.45;2.20;;;19.90;99.90;;;;;;4976602;28;20056;-88
2021/07/18 07:57:01;;;;;;;6.78;2.10;;;20.00;99.90;;;;;;4976719;28;20033;-88
2021/07/18 07:59:27;;;;;;;7.72;1.92;;;20.20;99.90;;;;;;4976706;28;20033;-88
2021/07/18 08:01:53;;;;;;;4.97;1.80;;;20.40;99.90;;;;;;4994290;28;20030;-88
2021/07/18 08:04:19;;;;;;;4.47;1.75;;;20.30;99.90;;;;;;4976656;28;20057;-88
2021/07/18 08:06:45;;;;;;;9.13;1.95;;;20.40;99.90;;;;;;4977732;28;20058;-88
2021/07/18 08:09:11;;;;;;;7.03;2.25;;;20.50;99.90;;;;;;4983048;28;20023;-88
2021/07/18 08:11:37;;;;;;;6.35;2.10;;;20.50;99.90;;;;;;4983105;28;20061;-88
2021/07/18 08:14:02;;;;;;;8.70;2.20;;;20.60;99.90;;;;;;4983071;28;20026;-89
2021/07/18 08:16:28;;;;;;;6.70;2.33;;;20.80;99.90;;;;;;5000487;28;20050;-89
2021/07/18 08:18:54;;;;;;;5.82;2.25;;;20.80;99.90;;;;;;4982871;28;20466;-90
2021/07/18 08:21:20;;;;;;;4.00;1.77;;;20.80;99.90;;;;;;5000371;28;20138;-88
2021/07/18 08:23:49;;;;;;;6.70;2.00;;;20.90;99.90;;;;;;4983131;28;20026;-88
2021/07/18 08:26:17;;;;;;;7.78;2.20;;;21.10;99.90;;;;;;4982841;28;20505;-88
2021/07/18 08:28:43;;;;;;;5.55;2.03;;;21.10;99.90;;;;;;4983708;28;20080;-88
2021/07/18 08:31:09;;;;;;;4.78;1.90;;;21.00;99.90;;;;;;4982702;28;20108;-89
2021/07/18 08:33:34;;;;;;;9.57;2.22;;;21.20;99.90;;;;;;4982830;28;20077;-89
2021/07/18 08:36:00;;;;;;;11.88;2.22;;;21.20;99.90;;;;;;5000110;28;20027;-89
2021/07/18 08:38:26;;;;;;;6.93;2.10;;;21.20;99.90;;;;;;4982581;28;20100;-88
2021/07/18 08:40:53;;;;;;;6.43;2.13;;;21.40;99.90;;;;;;4982786;28;20033;-89
2021/07/18 08:43:20;;;;;;;7.70;2.35;;;21.50;99.90;;;;;;4982777;28;20506;-89
2021/07/18 08:45:47;;;;;;;8.05;2.00;;;21.50;99.90;;;;;;4982680;28;20073;-88
2021/07/18 08:48:13;;;;;;;8.52;2.00;;;21.60;99.90;;;;;;4982608;28;20375;-88
2021/07/18 08:50:38;;;;;;;9.52;2.40;;;21.60;99.90;;;;;;4982575;28;20053;-88
2021/07/18 08:53:05;;;;;;;5.38;1.92;;;21.70;99.90;;;;;;4982511;28;20031;-89
2021/07/18 08:55:31;;;;;;;5.82;2.10;;;21.80;99.90;;;;;;4982518;28;20030;-88
2021/07/18 08:57:57;;;;;;;11.32;2.30;;;21.90;99.90;;;;;;4982549;28;20105;-89
2021/07/18 09:00:23;;;;;;;6.93;2.10;;;22.00;99.90;;;;;;4982489;28;20026;-87
2021/07/18 09:02:49;;;;;;;8.60;2.25;;;21.90;99.90;;;;;;4982461;28;20033;-88
2021/07/18 09:05:15;;;;;;;5.40;2.22;;;22.00;99.90;;;;;;4982505;28;20430;-88
2021/07/18 09:07:55;;;;;;;4.22;1.73;;;22.00;99.90;;;;;;4982452;28;20384;-88
2021/07/18 09:10:30;;;;;;;9.38;2.08;;;22.00;99.90;;;;;;4999958;28;20030;-88
2021/07/18 09:13:10;;;;;;;8.10;2.20;;;22.30;99.90;;;;;;4982451;28;20031;-87
2021/07/18 09:15:51;;;;;;;4.50;2.15;;;22.40;99.90;;;;;;4982354;28;20128;-88
2021/07/18 09:18:21;;;;;;;4.57;2.10;;;22.40;99.90;;;;;;4981658;28;20037;-88
2021/07/18 09:20:50;;;;;;;9.57;2.08;;;22.60;99.90;;;;;;4979268;28;20077;-88
2021/07/18 09:23:21;;;;;;;5.93;1.80;;;22.70;99.90;;;;;;4979329;28;20018;-87
2021/07/18 09:25:48;;;;;;;9.27;2.25;;;22.80;99.90;;;;;;4979238;28;20026;-88
2021/07/18 09:28:20;;;;;;;8.25;2.55;;;22.80;99.90;;;;;;5006556;28;20018;-88
2021/07/18 09:30:47;;;;;;;8.35;1.92;;;22.90;99.90;;;;;;4995338;28;20102;-88
2021/07/18 09:33:28;;;;;;;5.65;1.90;;;23.20;99.90;;;;;;4983825;28;20034;-88
2021/07/18 09:36:10;;;;;;;8.02;2.20;;;23.20;99.90;;;;;;4980275;28;20033;-89
2021/07/18 09:38:36;;;;;;;7.00;2.00;;;23.40;99.90;;;;;;4979701;28;20070;-88
2021/07/18 09:41:01;;;;;;;11.98;2.80;;;23.60;99.90;;;;;;4979103;28;20089;-89
2021/07/18 09:43:28;;;;;;;7.50;2.05;;;23.60;99.90;;;;;;4979122;28;20110;-88
2021/07/18 09:46:06;;;;;;;6.57;2.25;;;23.80;99.90;;;;;;4979019;28;20421;-88
2021/07/18 09:48:40;;;;;;;5.82;1.75;;;23.90;99.90;;;;;;4979024;28;20028;-89
2021/07/18 09:51:09;;;;;;;7.18;1.98;;;23.90;99.90;;;;;;4978840;28;20030;-88
2021/07/18 09:53:34;;;;;;;5.40;2.15;;;24.10;99.90;;;;;;4978779;28;20026;-87
2021/07/18 09:56:06;;;;;;;8.10;1.90;;;24.20;99.90;;;;;;4978838;28;20085;-88
2021/07/18 09:58:32;;;;;;;4.65;2.10;;;24.20;99.90;;;;;;4978780;28;20516;-88
2021/07/18 10:01:00;;;;;;;5.50;1.70;;;24.40;99.90;;;;;;4978690;28;20058;-88
2021/07/18 10:03:27;;;;;;;5.60;1.85;;;24.60;99.90;;;;;;4978582;28;20022;-88
2021/07/18 10:06:05;;;;;;;6.57;1.88;;;24.60;99.90;;;;;;4995991;28;20018;-88
2021/07/18 10:08:32;;;;;;;7.57;2.20;;;24.50;99.90;;;;;;4978807;28;20022;-88
2021/07/18 10:10:58;;;;;;;2.50;1.50;;;24.70;99.90;;;;;;4978600;28;20027;-88
2021/07/18 10:13:24;;;;;;;5.80;2.15;;;24.90;99.90;;;;;;4978457;28;20064;-88
2021/07/18 10:15:50;;;;;;;8.23;1.83;;;25.10;99.90;;;;;;4996102;28;20497;-88
2021/07/18 10:18:17;;;;;;;6.65;2.33;;;25.30;99.90;;;;;;4978311;28;20030;-88
2021/07/18 10:20:43;;;;;;;8.10;2.25;;;25.60;99.90;;;;;;4977980;28;20034;-88
2021/07/18 10:23:10;;;;;;;5.18;2.00;;;25.50;99.90;;;;;;4995710;28;20546;-89
2021/07/18 10:25:37;;;;;;;5.35;2.10;;;25.50;99.90;;;;;;4978612;28;20030;-88
2021/07/18 10:28:03;;;;;;;10.13;1.95;;;25.50;99.90;;;;;;4978469;28;20022;-88
2021/07/18 10:30:34;;;;;;;8.50;2.40;;;25.80;99.90;;;;;;4977515;28;20099;-87
2021/07/18 10:33:01;;;;;;;5.38;1.58;;;25.80;99.90;;;;;;4978037;28;20549;-88
2021/07/18 10:35:29;;;;;;;8.40;1.90;;;25.80;99.90;;;;;;4977913;28;20169;-88
2021/07/18 10:38:12;;;;;;;7.03;2.00;;;25.90;99.90;;;;;;4977642;28;20043;-88
2021/07/18 10:40:46;;;;;;;4.85;1.80;;;26.10;99.90;;;;;;4995531;28;20032;-86
2021/07/18 10:43:38;;;;;;;9.60;2.10;;;25.60;99.90;;;;;;4977951;28;20390;-88
2021/07/18 10:46:05;;;;;;;12.43;2.20;;;25.90;99.90;;;;;;4977823;28;20034;-88
2021/07/18 10:48:45;;;;;;;9.65;2.05;;;26.40;99.90;;;;;;4995080;28;20045;-88
2021/07/18 10:51:17;;;;;;;11.98;2.20;;;26.60;99.90;;;;;;4977790;28;20022;-88
2021/07/18 10:53:43;;;;;;;5.72;1.88;;;27.10;99.90;;;;;;4995014;28;20019;-89
2021/07/18 10:56:09;;;;;;;8.45;2.55;;;26.80;99.90;;;;;;4977622;28;20368;-89
2021/07/18 10:58:40;;;;;;;3.92;1.60;;;26.80;99.90;;;;;;4977579;28;20026;-88
2021/07/18 11:01:12;;;;;;;3.38;1.77;;;26.90;99.90;;;;;;4994817;28;20054;-87
2021/07/18 11:03:39;;;;;;;5.07;1.63;;;27.10;99.90;;;;;;4977364;28;20054;-88
2021/07/18 11:06:25;;;;;;;9.45;2.03;;;27.10;99.90;;;;;;4977400;28;20110;-88
2021/07/18 11:09:19;;;;;;;5.82;2.05;;;27.20;99.90;;;;;;4977307;28;20133;-88
2021/07/18 11:11:51;;;;;;;5.95;1.77;;;26.70;99.90;;;;;;4977828;28;20023;-88
2021/07/18 11:14:24;;;;;;;6.90;2.05;;;26.00;99.90;;;;;;4978051;28;20438;-87
2021/07/18 11:16:52;;;;;;;5.80;1.80;;;26.20;99.90;;;;;;4977255;28;20057;-88
2021/07/18 11:19:39;;;;;;;9.77;1.85;;;27.00;99.90;;;;;;4977106;28;20516;-87
2021/07/18 11:22:06;;;;;;;9.00;1.90;;;27.60;99.90;;;;;;4977044;28;20137;-87
2021/07/18 11:24:53;;;;;;;3.75;1.90;;;27.50;99.90;;;;;;4977009;28;20089;-87
2021/07/18 11:27:22;;;;;;;5.40;2.10;;;27.50;99.90;;;;;;4976926;28;20018;-87
2021/07/18 11:29:48;;;;;;;5.80;1.92;;;27.90;99.90;;;;;;4976973;28;20026;-87
2021/07/18 11:32:24;;;;;;;5.28;1.67;;;28.00;99.90;;;;;;4976841;28;20033;-87
2021/07/18 11:34:53;;;;;;;7.00;1.60;;;28.10;99.90;;;;;;4976938;28;20108;-87
2021/07/18 11:37:19;;;;;;;4.55;1.83;;;28.40;99.90;;;;;;4994075;28;20525;-87
2021/07/18 11:39:45;;;;;;;5.93;1.80;;;28.70;99.90;;;;;;4976917;28;20026;-87
2021/07/18 11:42:14;;;;;;;3.33;1.80;;;28.30;99.90;;;;;;5002370;28;20030;-87
2021/07/18 11:44:42;;;;;;;7.13;2.03;;;28.40;99.90;;;;;;4989056;28;20026;-87
2021/07/18 11:47:16;;;;;;;4.30;1.80;;;28.60;99.90;;;;;;4980797;28;20022;-87
2021/07/18 11:49:51;;;;;;;4.00;1.65;;;28.70;99.90;;;;;;4977495;28;20057;-87
2021/07/18 11:52:22;;;;;;;3.90;1.88;;;28.90;99.90;;;;;;4994807;28;20080;-88
2021/07/18 11:54:48;;;;;;;4.50;2.00;;;29.00;99.90;;;;;;4994503;28;20106;-88
2021/07/18 11:57:17;;;;;;;4.60;1.80;;;28.90;99.90;;;;;;4976778;28;20117;-88
2021/07/18 11:59:45;;;;;;;7.10;1.70;;;29.00;99.90;;;;;;4976603;28;20042;-86
2021/07/18 12:02:12;;;;;;;5.80;2.15;;;29.30;99.90;;;;;;4993942;28;20037;-88
2021/07/18 12:04:40;;;;;;;7.15;2.03;;;29.60;99.90;;;;;;4976854;28;20026;-88
2021/07/18 12:07:08;;;;;;;6.93;1.90;;;29.80;99.90;;;;;;4993888;28;20027;-87
2021/07/18 12:09:39;;;;;;;3.75;2.17;;;29.60;99.90;;;;;;4976249;28;20026;-86
2021/07/18 12:12:08;;;;;;;8.07;2.28;;;29.70;99.90;;;;;;4994185;28;20156;-85
2021/07/18 12:14:34;;;;;;;11.45;2.85;;;29.80;99.90;;;;;;4976353;28;20026;-87
2021/07/18 12:17:05;;;;;;;6.22;2.50;;;29.50;99.90;;;;;;4993929;28;20022;-87
2021/07/18 12:19:34;;;;;;;4.57;2.35;;;29.70;99.90;;;;;;4976456;28;20031;-87
2021/07/18 12:22:04;;;;;;;7.07;3.20;;;29.70;99.90;;;;;;4976273;28;20037;-87
2021/07/18 12:24:42;;;;;;;7.28;2.78;;;29.60;99.90;;;;;;4976462;28;20026;-87
2021/07/18 12:27:18;;;;;;;7.80;2.88;;;30.60;99.90;;;;;;4993805;28;20097;-86
2021/07/18 12:29:49;;;;;;;6.97;3.10;;;30.40;99.90;;;;;;4976367;28;20022;-88
2021/07/18 12:32:16;;;;;;;6.63;3.15;;;30.40;99.90;;;;;;4977384;28;20093;-87
2021/07/18 12:34:50;;;;;;;5.93;3.92;;;30.40;99.90;;;;;;4976252;28;20022;-87
2021/07/18 12:37:20;;;;;;;11.20;4.45;;;29.60;99.90;;;;;;4975986;28;20136;-87
2021/07/18 12:39:59;;;;;;;5.32;3.40;;;30.00;99.90;;;;;;4993943;28;20019;-87
2021/07/18 12:42:35;;;;;;;10.13;4.75;;;30.10;99.90;;;;;;4976123;28;20065;-87